Time;durP1;ratioP1;P1;durP2;ratioP2;P2;SDS_P1;SDS_P2;PMS_P1;PMS_P2;Temp;Humidity;BMP_temperature;BMP_pressure;BME280_temperature;BME280_humidity;BME280_pressure;Samples;Min_cycle;Max_cycle;Signal;HPM_P1;HPM_P2
2022/04/27 00:00:24;;;;;;;14.00;8.77;;;;;;;-148.33;100.00;56587.81;5050840;28;20033;-59
2022/04/27 00:02:51;;;;;;;9.77;8.80;;;;;;;-148.33;100.00;56587.81;5051247;28;20052;-60
2022/04/27 00:05:16;;;;;;;9.93;8.90;;;;;;;-148.33;100.00;56587.81;5050607;28;20473;-60
2022/04/27 00:07:42;;;;;;;9.83;8.43;;;;;;;-148.33;100.00;56587.81;5050323;28;20036;-59
2022/04/27 00:10:07;;;;;;;9.57;8.63;;;;;;;-148.33;100.00;56587.81;5051156;28;20032;-60
2022/04/27 00:12:37;;;;;;;11.60;8.73;;;;;;;-148.33;100.00;56587.81;5050865;28;20036;-59
2022/04/27 00:15:06;;;;;;;9.63;8.63;;;;;;;-148.33;100.00;56587.81;5050754;28;20028;-58
2022/04/27 00:17:32;;;;;;;11.67;9.30;;;;;;;-148.33;100.00;56587.81;5050743;28;20104;-59
2022/04/27 00:19:57;;;;;;;11.17;8.90;;;;;;;-148.33;100.00;56587.81;5050202;28;20116;-59
2022/04/27 00:22:23;;;;;;;10.03;9.07;;;;;;;-148.33;100.00;56587.81;5049922;28;20655;-60
2022/04/27 00:24:49;;;;;;;10.27;9.20;;;;;;;-148.33;100.00;56587.81;5050365;28;20032;-59
2022/04/27 00:27:15;;;;;;;10.60;9.00;;;;;;;-148.33;100.00;56587.81;5050193;28;20025;-60
2022/04/27 00:29:40;;;;;;;9.33;8.40;;;;;;;-148.33;100.00;56587.81;5050032;28;20131;-59
2022/04/27 00:32:06;;;;;;;10.50;9.40;;;;;;;-148.33;100.00;56587.81;5050556;28;20063;-58
2022/04/27 00:34:31;;;;;;;10.47;9.37;;;;;;;-148.33;100.00;56587.81;5049899;28;20500;-59
2022/04/27 00:36:56;;;;;;;10.77;9.67;;;;;;;-148.33;100.00;56587.81;5050585;28;20094;-58
2022/04/27 00:39:21;;;;;;;11.03;9.87;;;;;;;-148.33;100.00;56587.81;5050229;28;20493;-58
2022/04/27 00:41:59;;;;;;;11.57;10.53;;;;;;;-148.33;100.00;56587.81;5049618;28;20037;-58
2022/04/27 00:44:32;;;;;;;11.87;9.53;;;;;;;-148.33;100.00;56587.81;5049896;28;20094;-57
2022/04/27 00:46:58;;;;;;;11.27;8.70;;;;;;;-148.33;100.00;56587.81;5050037;28;20025;-59
2022/04/27 00:49:24;;;;;;;11.27;9.67;;;;;;;-148.33;100.00;56587.81;5049698;28;20461;-59
2022/04/27 00:51:50;;;;;;;12.83;10.13;;;;;;;-148.33;100.00;56587.81;5049873;28;20032;-59
2022/04/27 00:54:16;;;;;;;11.77;10.27;;;;;;;-148.33;100.00;56587.81;5050126;28;20033;-58
2022/04/27 00:56:42;;;;;;;13.30;10.30;;;;;;;-148.33;100.00;56587.81;5050060;28;20036;-57
2022/04/27 00:59:09;;;;;;;12.07;10.20;;;;;;;-148.33;100.00;56587.81;5048630;28;20140;-58
2022/04/27 01:01:35;;;;;;;10.13;9.13;;;;;;;-148.33;100.00;56587.81;5049565;28;20025;-57
2022/04/27 01:04:00;;;;;;;11.07;9.70;;;;;;;-148.33;100.00;56587.81;5048871;28;20025;-58
2022/04/27 01:06:27;;;;;;;10.03;9.13;;;;;;;-148.33;100.00;56587.81;5049751;28;20029;-59
2022/04/27 01:08:53;;;;;;;10.87;9.83;;;;;;;-148.33;100.00;56587.81;5049969;28;20029;-57
2022/04/27 01:11:18;;;;;;;14.03;10.30;;;;;;;-148.33;100.00;56587.81;5049459;28;20396;-59
2022/04/27 01:13:44;;;;;;;12.53;9.87;;;;;;;-148.33;100.00;56587.81;5049298;28;20036;-58
2022/04/27 01:16:10;;;;;;;11.03;9.90;;;;;;;-148.33;100.00;56587.81;5049822;28;20465;-59
2022/04/27 01:18:36;;;;;;;11.57;10.40;;;;;;;-148.33;100.00;56587.81;5049654;28;20025;-58
2022/04/27 01:21:05;;;;;;;10.40;9.40;;;;;;;-148.33;100.00;56587.81;5049198;28;20036;-59
2022/04/27 01:23:30;;;;;;;12.33;9.93;;;;;;;-148.33;100.00;56587.81;5049612;28;20291;-59
2022/04/27 01:25:59;;;;;;;11.20;9.97;;;;;;;-148.33;100.00;56587.81;5049682;28;20397;-58
2022/04/27 01:28:27;;;;;;;11.80;10.17;;;;;;;-148.33;100.00;56587.81;5048701;28;20028;-58
2022/04/27 01:30:57;;;;;;;12.10;10.53;;;;;;;-148.33;100.00;56587.81;5048881;28;20028;-60
2022/04/27 01:33:23;;;;;;;13.53;10.73;;;;;;;-148.33;100.00;56587.81;5048879;28;20187;-59
2022/04/27 01:35:48;;;;;;;12.40;10.17;;;;;;;-148.33;100.00;56587.81;5049543;28;20350;-59
2022/04/27 01:38:18;;;;;;;12.37;10.53;;;;;;;-148.33;100.00;56587.81;5049222;28;20106;-58
2022/04/27 01:40:43;;;;;;;11.90;10.80;;;;;;;-148.33;100.00;56587.81;5048775;28;20024;-59
2022/04/27 01:43:09;;;;;;;11.70;9.70;;;;;;;-148.33;100.00;56587.81;5048428;28;20469;-58
2022/04/27 01:45:34;;;;;;;11.20;9.97;;;;;;;-148.33;100.00;56587.81;5048841;28;20031;-58
2022/04/27 01:47:59;;;;;;;12.17;10.97;;;;;;;-148.33;100.00;56587.81;5049093;28;20030;-58
2022/04/27 01:50:25;;;;;;;13.87;12.33;;;;;;;-148.33;100.00;56587.81;5048775;28;20035;-59
2022/04/27 01:55:35;;;;;;;11.07;9.97;;;;;;;-148.33;100.00;56587.81;5048610;28;20126;-59
2022/04/27 01:58:00;;;;;;;11.97;10.97;;;;;;;-148.33;100.00;56587.81;5048040;28;20028;-59
2022/04/27 02:00:26;;;;;;;12.50;11.30;;;;;;;-148.33;100.00;56587.81;5048049;28;20029;-58
2022/04/27 02:02:51;;;;;;;17.73;12.43;;;;;;;-148.33;100.00;56587.81;5046612;28;20106;-58
2022/04/27 02:05:16;;;;;;;13.07;11.83;;;;;;;-148.33;100.00;56587.81;5048038;28;20111;-59
2022/04/27 02:07:43;;;;;;;15.27;12.17;;;;;;;-148.33;100.00;56587.81;5047445;28;20032;-59
2022/04/27 02:10:09;;;;;;;12.63;11.30;;;;;;;-148.33;100.00;56587.81;5048245;28;20112;-58
2022/04/27 02:12:34;;;;;;;13.50;11.50;;;;;;;-148.33;100.00;56587.81;5043940;28;20034;-59
2022/04/27 02:15:00;;;;;;;14.17;12.67;;;;;;;-148.33;100.00;56587.81;5036740;28;20029;-59
2022/04/27 02:17:25;;;;;;;13.90;12.53;;;;;;;-148.33;100.00;56587.81;5047895;28;20525;-57
2022/04/27 02:19:50;;;;;;;13.80;12.43;;;;;;;-148.33;100.00;56587.81;5047599;28;20037;-58
2022/04/27 02:22:16;;;;;;;15.50;13.63;;;;;;;-148.33;100.00;56587.81;5047046;28;20436;-57
2022/04/27 02:24:41;;;;;;;14.43;12.77;;;;;;;-148.33;100.00;56587.81;5047910;28;20060;-58
2022/04/27 02:27:07;;;;;;;14.27;12.77;;;;;;;-148.33;100.00;56587.81;5048061;28;20384;-59
2022/04/27 02:29:32;;;;;;;13.30;12.00;;;;;;;-148.33;100.00;56587.81;5047091;28;20029;-57
2022/04/27 02:31:57;;;;;;;18.17;12.30;;;;;;;-148.33;100.00;56587.81;5047550;28;20025;-57
2022/04/27 02:34:23;;;;;;;16.10;14.00;;;;;;;-148.33;100.00;56587.81;5047314;28;20041;-56
2022/04/27 02:36:48;;;;;;;15.10;13.50;;;;;;;-148.33;100.00;56587.81;5047825;28;20039;-58
2022/04/27 02:39:13;;;;;;;15.57;14.07;;;;;;;-148.33;100.00;56587.81;5047044;28;20040;-58
2022/04/27 02:41:39;;;;;;;15.97;13.97;;;;;;;-148.33;100.00;56587.81;5047787;28;20021;-57
2022/04/27 02:44:04;;;;;;;16.50;13.47;;;;;;;-148.33;100.00;56587.81;5047454;28;20035;-58
2022/04/27 02:46:29;;;;;;;15.90;12.90;;;;;;;-148.33;100.00;56587.81;5047710;28;20021;-56
2022/04/27 02:51:54;;;;;;;14.20;12.33;;;;;;;-148.33;100.00;56587.81;5047900;28;20561;-58
2022/04/27 02:54:23;;;;;;;14.85;13.32;;;;;;;-148.33;100.00;56587.81;5047259;28;20381;-56
2022/04/27 02:56:49;;;;;;;16.33;14.50;;;;;;;-148.33;100.00;56587.81;5047508;28;20029;-58
2022/04/27 02:59:15;;;;;;;15.33;13.83;;;;;;;-148.33;100.00;56587.81;5047049;28;20036;-57
2022/04/27 03:01:41;;;;;;;15.83;14.23;;;;;;;-148.33;100.00;56587.81;5047419;28;20029;-58
2022/04/27 03:04:07;;;;;;;15.50;13.93;;;;;;;-148.33;100.00;56587.81;5046968;28;20052;-58
2022/04/27 03:06:32;;;;;;;16.30;14.70;;;;;;;-148.33;100.00;56587.81;5047723;28;20484;-58
2022/04/27 03:08:58;;;;;;;16.00;14.30;;;;;;;-148.33;100.00;56587.81;5046055;28;20036;-57
2022/04/27 03:11:24;;;;;;;14.83;13.37;;;;;;;-148.33;100.00;56587.81;5047942;28;20033;-58
2022/04/27 03:13:50;;;;;;;14.90;13.50;;;;;;;-148.33;100.00;56587.81;5046257;28;20032;-56
2022/04/27 03:16:15;;;;;;;16.10;14.40;;;;;;;-148.33;100.00;56587.81;5047376;28;20075;-58
2022/04/27 03:18:42;;;;;;;15.80;13.97;;;;;;;-148.33;100.00;56587.81;5047444;28;20061;-59
2022/04/27 03:21:07;;;;;;;16.27;14.40;;;;;;;-148.33;100.00;56587.81;5047331;28;20472;-59
2022/04/27 03:23:32;;;;;;;15.23;13.83;;;;;;;-148.33;100.00;56587.81;5046998;28;20032;-59
2022/04/27 03:25:57;;;;;;;16.70;14.90;;;;;;;-148.33;100.00;56587.81;5046771;28;20366;-58
2022/04/27 03:28:23;;;;;;;15.97;14.43;;;;;;;-148.33;100.00;56587.81;5050061;28;20025;-57
2022/04/27 03:30:49;;;;;;;15.30;13.80;;;;;;;-148.33;100.00;56587.81;5050614;28;20033;-57
2022/04/27 03:33:15;;;;;;;16.00;14.37;;;;;;;-148.33;100.00;56587.81;5050828;28;20077;-58
2022/04/27 03:35:41;;;;;;;15.57;13.57;;;;;;;-148.33;100.00;56587.81;5050462;28;20032;-59
2022/04/27 03:38:07;;;;;;;15.90;13.90;;;;;;;-148.33;100.00;56587.81;5050013;28;20095;-58
2022/04/27 03:40:33;;;;;;;15.63;13.97;;;;;;;-148.33;100.00;56587.81;5050571;28;20427;-57
2022/04/27 03:42:58;;;;;;;16.97;14.40;;;;;;;-148.33;100.00;56587.81;5050406;28;20442;-59
2022/04/27 03:45:23;;;;;;;21.90;13.87;;;;;;;-148.33;100.00;56587.81;5050480;28;20033;-59
2022/04/27 03:47:49;;;;;;;16.10;14.37;;;;;;;-148.33;100.00;56587.81;5050948;28;20025;-58
2022/04/27 03:50:15;;;;;;;18.70;15.10;;;;;;;-148.33;100.00;56587.81;5050144;28;20110;-59
2022/04/27 03:52:42;;;;;;;15.47;14.00;;;;;;;-148.33;100.00;56587.81;5049688;28;20556;-59
2022/04/27 03:55:07;;;;;;;15.80;14.33;;;;;;;-148.33;100.00;56587.81;5050535;28;20021;-59
2022/04/27 03:57:33;;;;;;;16.30;14.30;;;;;;;-148.33;100.00;56587.81;5049501;28;20112;-58
2022/04/27 03:59:58;;;;;;;16.87;15.17;;;;;;;-148.33;100.00;56587.81;5050205;28;20029;-57
2022/04/27 04:02:23;;;;;;;15.90;14.40;;;;;;;-148.33;100.00;56587.81;5049954;28;20388;-57
2022/04/27 04:04:49;;;;;;;15.87;13.97;;;;;;;-148.33;100.00;56587.81;5049821;28;20024;-59
2022/04/27 04:07:14;;;;;;;19.40;15.63;;;;;;;-148.33;100.00;56587.81;5048558;28;20028;-58
2022/04/27 04:09:40;;;;;;;15.30;13.80;;;;;;;-148.33;100.00;56587.81;5049010;28;20037;-58
2022/04/27 04:12:06;;;;;;;16.27;14.67;;;;;;;-148.33;100.00;56587.81;5048150;28;20034;-58
2022/04/27 04:14:32;;;;;;;16.67;15.03;;;;;;;-148.33;100.00;56587.81;5047719;28;20461;-58
2022/04/27 04:16:57;;;;;;;16.23;14.60;;;;;;;-148.33;100.00;56587.81;5048803;28;20094;-56
2022/04/27 04:19:22;;;;;;;16.87;14.47;;;;;;;-148.33;100.00;56587.81;5048902;28;20597;-59
2022/04/27 04:21:47;;;;;;;17.90;15.53;;;;;;;-148.33;100.00;56587.81;5049090;28;20086;-57
2022/04/27 04:24:13;;;;;;;16.43;14.80;;;;;;;-148.33;100.00;56587.81;5050002;28;20036;-59
2022/04/27 04:29:22;;;;;;;16.17;14.60;;;;;;;-148.33;100.00;56587.81;5050094;28;20122;-56
2022/04/27 04:31:47;;;;;;;16.97;15.27;;;;;;;-148.33;100.00;56587.81;5049807;28;20068;-58
2022/04/27 04:34:12;;;;;;;17.77;15.87;;;;;;;-148.33;100.00;56587.81;5042495;28;20049;-59
2022/04/27 04:36:38;;;;;;;17.73;15.70;;;;;;;-148.33;100.00;56587.81;5043451;28;20068;-57
2022/04/27 04:39:03;;;;;;;17.97;15.40;;;;;;;-148.33;100.00;56587.81;5047947;28;20024;-58
2022/04/27 04:41:28;;;;;;;17.10;15.30;;;;;;;-148.33;100.00;56587.81;5048982;28;20035;-58
2022/04/27 04:43:53;;;;;;;16.80;14.97;;;;;;;-148.33;100.00;56587.81;5050364;28;20028;-58
2022/04/27 04:46:19;;;;;;;16.60;14.90;;;;;;;-148.33;100.00;56587.81;5049500;28;20108;-56
2022/04/27 04:48:44;;;;;;;18.30;15.03;;;;;;;-148.33;100.00;56587.81;5049242;28;20476;-61
2022/04/27 04:51:09;;;;;;;17.37;15.53;;;;;;;-148.33;100.00;56587.81;5049553;28;20027;-57
2022/04/27 04:53:34;;;;;;;16.50;14.87;;;;;;;-148.33;100.00;56587.81;5046008;28;20028;-58
2022/04/27 04:56:00;;;;;;;17.13;15.40;;;;;;;-148.33;100.00;56587.81;5037959;28;20049;-56
2022/04/27 04:58:25;;;;;;;16.20;14.60;;;;;;;-148.33;100.00;56587.81;5029704;28;20029;-58
2022/04/27 05:00:50;;;;;;;18.30;15.03;;;;;;;-148.33;100.00;56587.81;5032404;28;20108;-58
2022/04/27 05:03:16;;;;;;;16.80;15.23;;;;;;;-148.33;100.00;56587.81;5027473;28;20092;-57
2022/04/27 05:05:42;;;;;;;17.00;15.30;;;;;;;-148.33;100.00;56587.81;5031856;28;20030;-57
2022/04/27 05:08:09;;;;;;;17.43;15.70;;;;;;;-148.33;100.00;56587.81;5035799;28;20487;-58
2022/04/27 05:10:35;;;;;;;19.30;17.03;;;;;;;-148.33;100.00;56587.81;5046776;28;20029;-56
2022/04/27 05:13:01;;;;;;;19.47;16.27;;;;;;;-148.33;100.00;56587.81;5047303;28;20429;-56
2022/04/27 05:15:26;;;;;;;18.80;16.90;;;;;;;-148.33;100.00;56587.81;5044545;28;20032;-58
2022/04/27 05:17:52;;;;;;;19.13;17.10;;;;;;;-148.33;100.00;56587.81;5047135;28;20017;-58
2022/04/27 05:20:17;;;;;;;18.83;16.87;;;;;;;-148.33;100.00;56587.81;5034378;28;20030;-57
2022/04/27 05:22:43;;;;;;;18.10;16.30;;;;;;;-148.33;100.00;56587.81;5026690;28;20029;-59
2022/04/27 05:25:10;;;;;;;20.43;17.43;;;;;;;-148.33;100.00;56587.81;5030309;28;20033;-59
2022/04/27 05:27:37;;;;;;;18.33;16.53;;;;;;;-148.33;100.00;56587.81;5029110;28;20430;-58
2022/04/27 05:32:48;;;;;;;19.07;17.17;;;;;;;-148.33;100.00;56587.81;5034398;28;20513;-58
2022/04/27 05:35:14;;;;;;;20.20;18.10;;;;;;;-148.33;100.00;56587.81;5040307;28;20118;-59
2022/04/27 05:37:39;;;;;;;22.70;18.90;;;;;;;-148.33;100.00;56587.81;5041471;28;20056;-57
2022/04/27 05:40:06;;;;;;;21.77;19.60;;;;;;;-148.33;100.00;56587.81;5028680;28;20473;-59
2022/04/27 05:42:32;;;;;;;21.67;19.57;;;;;;;-148.33;100.00;56587.81;5028381;28;20025;-58
2022/04/27 05:44:57;;;;;;;21.80;19.50;;;;;;;-148.33;100.00;56587.81;5028513;28;20276;-56
2022/04/27 05:47:25;;;;;;;22.27;19.97;;;;;;;-148.33;100.00;56587.81;5027645;28;20450;-58
2022/04/27 05:49:51;;;;;;;20.93;18.73;;;;;;;-148.33;100.00;56587.81;5036175;28;20025;-57
2022/04/27 05:52:17;;;;;;;21.60;18.90;;;;;;;-148.33;100.00;56587.81;5039376;28;20029;-58
2022/04/27 05:54:42;;;;;;;19.60;17.70;;;;;;;-148.33;100.00;56587.81;5035143;28;20047;-56
2022/04/27 05:57:07;;;;;;;20.40;17.57;;;;;;;-148.33;100.00;56587.81;5038507;28;20446;-56
2022/04/27 05:59:33;;;;;;;19.80;17.70;;;;;;;-148.33;100.00;56587.81;5041870;28;20017;-57
2022/04/27 06:01:58;;;;;;;19.17;17.20;;;;;;;-148.33;100.00;56587.81;5033819;28;20033;-57
2022/04/27 06:04:25;;;;;;;18.37;16.53;;;;;;;-148.33;100.00;56587.81;5031074;28;20017;-57
2022/04/27 06:06:50;;;;;;;18.00;16.40;;;;;;;-148.33;100.00;56587.81;5039572;28;20031;-57
2022/04/27 06:09:15;;;;;;;17.00;15.30;;;;;;;-148.33;100.00;56587.81;5040123;28;20491;-57
2022/04/27 06:11:41;;;;;;;17.17;15.52;;;;;;;-148.33;100.00;56587.81;5040499;28;20294;-58
2022/04/27 06:14:06;;;;;;;17.13;15.40;;;;;;;-148.33;100.00;56587.81;5048075;28;20397;-58
2022/04/27 06:16:33;;;;;;;15.82;14.40;;;;;;;-148.33;100.00;56587.81;5047791;28;20551;-57
2022/04/27 06:18:58;;;;;;;14.90;13.40;;;;;;;-148.33;100.00;56587.81;5047043;28;20032;-58
2022/04/27 06:21:23;;;;;;;13.90;12.70;;;;;;;-148.33;100.00;56587.81;5047632;28;20021;-58
2022/04/27 06:23:49;;;;;;;14.15;12.77;;;;;;;-148.33;100.00;56587.81;5047273;28;20025;-57
2022/04/27 06:26:14;;;;;;;13.65;12.20;;;;;;;-148.33;100.00;56587.81;5047762;28;20025;-56
2022/04/27 06:28:40;;;;;;;13.45;12.05;;;;;;;-148.33;100.00;56587.81;5047836;28;20504;-56
2022/04/27 06:31:06;;;;;;;16.05;12.10;;;;;;;-148.33;100.00;56587.81;5047455;28;20021;-58
2022/04/27 06:33:31;;;;;;;12.68;11.18;;;;;;;-148.33;100.00;56587.81;5047225;28;20045;-58
2022/04/27 06:35:57;;;;;;;12.43;11.13;;;;;;;-148.33;100.00;56587.81;5047116;28;20027;-56
2022/04/27 06:38:22;;;;;;;12.05;10.85;;;;;;;-148.33;100.00;56587.81;5047329;28;20070;-59
2022/04/27 06:40:47;;;;;;;14.55;11.23;;;;;;;-148.33;100.00;56587.81;5047135;28;20121;-58
2022/04/27 06:43:12;;;;;;;11.02;10.02;;;;;;;-148.33;100.00;56587.81;5048054;28;20521;-59
2022/04/27 06:45:38;;;;;;;12.25;11.05;;;;;;;-148.33;100.00;56587.81;5047368;28;20036;-58
2022/04/27 06:48:04;;;;;;;11.60;10.32;;;;;;;-148.33;100.00;56587.81;5047080;28;20116;-58
2022/04/27 06:50:30;;;;;;;12.45;10.45;;;;;;;-148.33;100.00;56587.81;5047459;28;20021;-59
2022/04/27 06:52:59;;;;;;;11.02;9.93;;;;;;;-148.33;100.00;56587.81;5046067;28;20029;-57
2022/04/27 06:55:25;;;;;;;11.75;10.65;;;;;;;-148.33;100.00;56587.81;5048031;28;20040;-59
2022/04/27 06:57:50;;;;;;;10.98;9.90;;;;;;;-148.33;100.00;56587.81;5047405;28;20020;-59
2022/04/27 07:00:16;;;;;;;12.20;10.40;;;;;;;-148.33;100.00;56587.81;5046732;28;20040;-59
2022/04/27 07:02:41;;;;;;;12.30;10.15;;;;;;;-148.33;100.00;56587.81;5050383;28;20362;-59
2022/04/27 07:05:12;;;;;;;12.30;9.90;;;;;;;-148.33;100.00;56587.81;5051994;28;20504;-58
2022/04/27 07:07:37;;;;;;;10.63;9.00;;;;;;;-148.33;100.00;56587.81;5051297;28;20052;-58
2022/04/27 07:10:03;;;;;;;10.85;9.27;;;;;;;-148.33;100.00;56587.81;5051435;28;20063;-58
2022/04/27 07:12:28;;;;;;;9.52;8.60;;;;;;;-148.33;100.00;56587.81;5050897;28;20816;-58
2022/04/27 07:14:54;;;;;;;10.23;8.98;;;;;;;-148.33;100.00;56587.81;5050790;28;20518;-59
2022/04/27 07:17:19;;;;;;;11.93;8.32;;;;;;;-148.33;100.00;56587.81;5043598;28;20029;-59
2022/04/27 07:19:45;;;;;;;9.27;8.27;;;;;;;-148.33;100.00;56587.81;5050185;28;20064;-59
2022/04/27 07:22:11;;;;;;;9.73;7.80;;;;;;;-148.33;100.00;56587.81;5050183;28;20033;-59
2022/04/27 07:24:39;;;;;;;8.70;7.80;;;;;;;-148.33;100.00;56587.81;5051048;28;20047;-60
2022/04/27 07:27:05;;;;;;;10.80;8.00;;;;;;;-148.33;100.00;56587.81;5047602;28;20038;-59
2022/04/27 07:29:31;;;;;;;9.38;6.75;;;;;;;-148.33;100.00;56587.81;5030184;28;20034;-59
2022/04/27 07:31:56;;;;;;;7.65;6.25;;;;;;;-148.33;100.00;56587.81;5031445;28;20497;-59
2022/04/27 07:34:22;;;;;;;8.60;6.00;;;;;;;-148.33;100.00;56587.81;5030245;28;20151;-58
2022/04/27 07:36:48;;;;;;;8.07;6.85;;;;;;;-148.33;100.00;56587.81;5030680;28;20029;-59
2022/04/27 07:39:13;;;;;;;7.50;6.20;;;;;;;-148.33;100.00;56587.81;5031067;28;20028;-59
2022/04/27 07:41:38;;;;;;;8.60;6.80;;;;;;;-148.33;100.00;56587.81;5030074;28;20049;-59
2022/04/27 07:44:06;;;;;;;9.32;7.00;;;;;;;-148.33;100.00;56587.81;5030771;28;20040;-59
2022/04/27 07:46:32;;;;;;;9.68;6.60;;;;;;;-148.33;100.00;56587.81;5031460;28;20375;-60
2022/04/27 07:48:57;;;;;;;9.07;6.40;;;;;;;-148.33;100.00;56587.81;5031131;28;20026;-59
2022/04/27 07:51:22;;;;;;;7.03;6.28;;;;;;;-148.33;100.00;56587.81;5030900;28;20033;-60
2022/04/27 07:53:48;;;;;;;9.15;5.55;;;;;;;-148.33;100.00;56587.81;5029742;28;20029;-60
2022/04/27 07:56:13;;;;;;;7.05;5.43;;;;;;;-148.33;100.00;56587.81;5031216;28;20040;-60
2022/04/27 07:58:39;;;;;;;8.15;6.10;;;;;;;-148.33;100.00;56587.81;5030959;28;20103;-60
2022/04/27 08:01:04;;;;;;;9.32;5.43;;;;;;;-148.33;100.00;56587.81;5041092;28;20024;-60
2022/04/27 08:03:29;;;;;;;7.50;5.90;;;;;;;-148.33;100.00;56587.81;5050452;28;20025;-60
2022/04/27 08:05:55;;;;;;;6.18;5.60;;;;;;;-148.33;100.00;56587.81;5050155;28;20013;-59
2022/04/27 08:08:20;;;;;;;7.45;5.68;;;;;;;-148.33;100.00;56587.81;5051075;28;20065;-59
2022/04/27 08:10:46;;;;;;;5.55;5.00;;;;;;;-148.33;100.00;56587.81;5049917;28;20021;-60
2022/04/27 08:13:12;;;;;;;5.90;5.30;;;;;;;-148.33;100.00;56587.81;5049704;28;20021;-60
2022/04/27 08:15:37;;;;;;;5.68;4.47;;;;;;;-148.33;100.00;56587.81;5043988;28;20625;-60
2022/04/27 08:18:06;;;;;;;8.82;5.18;;;;;;;-148.33;100.00;56587.81;5047427;28;20116;-60
2022/04/27 08:23:18;;;;;;;5.47;4.90;;;;;;;-148.33;100.00;56587.81;5037774;28;20045;-60
2022/04/27 08:25:47;;;;;;;7.93;4.60;;;;;;;-148.33;100.00;56587.81;5032238;28;20025;-60
2022/04/27 08:28:13;;;;;;;5.55;3.83;;;;;;;-148.33;100.00;56587.81;5045303;28;20028;-60
2022/04/27 08:30:40;;;;;;;4.97;3.13;;;;;;;-148.33;100.00;56587.81;5045372;28;20538;-60
2022/04/27 08:33:07;;;;;;;4.47;2.70;;;;;;;-148.33;100.00;56587.81;5047916;28;20033;-60
2022/04/27 08:35:33;;;;;;;3.22;2.50;;;;;;;-148.33;100.00;56587.81;5039792;28;20461;-60
2022/04/27 08:37:59;;;;;;;3.97;2.13;;;;;;;-148.33;100.00;56587.81;5027392;28;20061;-60
2022/04/27 08:40:24;;;;;;;5.90;3.22;;;;;;;-148.33;100.00;56587.81;5028606;28;20462;-60
2022/04/27 08:42:51;;;;;;;3.33;3.03;;;;;;;-148.33;100.00;56587.81;5029259;28;20029;-59
2022/04/27 08:45:17;;;;;;;5.70;2.97;;;;;;;-148.33;100.00;56587.81;5029655;28;20292;-58
2022/04/27 08:47:43;;;;;;;4.60;3.80;;;;;;;-148.33;100.00;56587.81;5029009;28;20421;-61
2022/04/27 08:50:16;;;;;;;5.22;3.78;;;;;;;-148.33;100.00;56587.81;5028506;28;20033;-60
2022/04/27 08:52:43;;;;;;;4.95;4.32;;;;;;;-148.33;100.00;56587.81;5028178;28;20542;-60
2022/04/27 08:55:09;;;;;;;4.88;4.13;;;;;;;-148.33;100.00;56587.81;5029554;28;20021;-60
2022/04/27 08:57:34;;;;;;;5.40;3.67;;;;;;;-148.33;100.00;56587.81;5028407;28;20385;-61
2022/04/27 09:00:00;;;;;;;4.80;3.42;;;;;;;-148.33;100.00;56587.81;5029972;28;20030;-60
2022/04/27 09:02:26;;;;;;;5.57;4.03;;;;;;;-148.33;100.00;56587.81;5030047;28;20029;-61
2022/04/27 09:05:17;;;;;;;5.70;4.25;;;;;;;-148.33;100.00;56587.81;5029359;28;20112;-60
2022/04/27 09:07:52;;;;;;;6.63;4.35;;;;;;;-148.33;100.00;56587.81;5029616;28;20033;-61
2022/04/27 09:10:21;;;;;;;5.32;3.83;;;;;;;-148.33;100.00;56587.81;5029909;28;20109;-61
2022/04/27 09:12:55;;;;;;;6.28;3.78;;;;;;;-148.33;100.00;56587.81;5029653;28;20028;-60
2022/04/27 09:15:22;;;;;;;5.00;3.92;;;;;;;-148.33;100.00;56587.81;5029697;28;20024;-59
2022/04/27 09:20:57;;;;;;;4.30;3.67;;;;;;;-148.33;100.00;56587.81;5029840;28;20060;-61
2022/04/27 09:23:37;;;;;;;5.55;4.30;;;;;;;-148.33;100.00;56587.81;5029450;28;20036;-62
2022/04/27 09:26:19;;;;;;;4.93;4.43;;;;;;;-148.33;100.00;56587.81;5028987;28;20029;-61
2022/04/27 09:28:50;;;;;;;7.68;4.40;;;;;;;-148.33;100.00;56587.81;5031161;28;20584;-61
2022/04/27 09:31:29;;;;;;;;;;;;;;;-148.33;100.00;56587.81;5029370;28;20381;-60
2022/04/27 09:34:03;;;;;;;7.07;4.70;;;;;;;-148.33;100.00;56587.81;5029163;28;20008;-61
2022/04/27 09:36:29;;;;;;;5.22;4.72;;;;;;;-148.33;100.00;56587.81;5029115;28;20696;-61
2022/04/27 09:38:57;;;;;;;5.72;4.50;;;;;;;-148.33;100.00;56587.81;5029429;28;20083;-61
2022/04/27 09:41:42;;;;;;;6.40;4.30;;;;;;;-148.33;100.00;56587.81;5029481;28;20104;-60
2022/04/27 09:44:26;;;;;;;6.15;5.47;;;;;;;-148.33;100.00;56587.81;5028801;28;20087;-61
2022/04/27 09:46:51;;;;;;;7.72;5.13;;;;;;;-148.33;100.00;56587.81;5029093;28;20025;-61
2022/04/27 09:49:17;;;;;;;6.03;4.75;;;;;;;-148.33;100.00;56587.81;5029199;28;20147;-60
2022/04/27 09:51:53;;;;;;;8.30;5.50;;;;;;;-148.33;100.00;56587.81;5029592;28;20032;-60
2022/04/27 09:54:28;;;;;;;7.38;5.75;;;;;;;-148.33;100.00;56587.81;5028426;28;20033;-61
2022/04/27 09:57:16;;;;;;;5.47;4.93;;;;;;;-148.33;100.00;56587.81;5028785;28;20389;-60
2022/04/27 09:59:42;;;;;;;5.85;5.28;;;;;;;-148.33;100.00;56587.81;5028715;28;20021;-60
2022/04/27 10:02:15;;;;;;;7.95;4.90;;;;;;;-148.33;100.00;56587.81;5028830;28;20076;-61
2022/04/27 10:04:40;;;;;;;5.43;4.93;;;;;;;-148.33;100.00;56587.81;5029183;28;20366;-60
2022/04/27 10:07:10;;;;;;;6.95;6.13;;;;;;;-148.33;100.00;56587.81;5029005;28;20055;-61
2022/04/27 10:09:35;;;;;;;8.15;6.45;;;;;;;-148.33;100.00;56587.81;5028855;28;20560;-60
2022/04/27 10:12:03;;;;;;;10.32;6.05;;;;;;;-148.33;100.00;56587.81;5028685;28;20025;-61
2022/04/27 10:14:29;;;;;;;9.65;6.32;;;;;;;-148.33;100.00;56587.81;5028671;28;20252;-61
2022/04/27 10:16:56;;;;;;;6.20;5.57;;;;;;;-148.33;100.00;56587.81;5028866;28;20564;-60
2022/04/27 10:19:21;;;;;;;7.55;5.93;;;;;;;-148.33;100.00;56587.81;5028224;28;20037;-59
2022/04/27 10:21:58;;;;;;;7.95;5.72;;;;;;;-148.33;100.00;56587.81;5028814;28;20029;-59
2022/04/27 10:24:49;;;;;;;7.28;6.07;;;;;;;-148.33;100.00;56587.81;5028748;28;20029;-60
2022/04/27 10:27:22;;;;;;;7.60;6.80;;;;;;;-148.33;100.00;56587.81;5024917;28;20040;-61
2022/04/27 10:29:52;;;;;;;6.38;5.78;;;;;;;-148.33;100.00;56587.81;5028299;28;20085;-61
2022/04/27 10:32:40;;;;;;;7.10;6.37;;;;;;;-148.33;100.00;56587.81;5028944;28;20405;-61
2022/04/27 10:35:27;;;;;;;6.25;5.75;;;;;;;-148.33;100.00;56587.81;5028580;28;20034;-60
2022/04/27 10:37:57;;;;;;;8.50;6.15;;;;;;;-148.33;100.00;56587.81;5032690;28;20253;-61
2022/04/27 10:40:33;;;;;;;7.13;6.47;;;;;;;-148.33;100.00;56587.81;5032648;28;20377;-61
2022/04/27 10:43:27;;;;;;;7.82;6.40;;;;;;;-148.33;100.00;56587.81;5032469;28;20032;-61
2022/04/27 10:45:53;;;;;;;8.48;6.53;;;;;;;-148.33;100.00;56587.81;5031806;28;20037;-61
2022/04/27 10:48:45;;;;;;;9.13;7.47;;;;;;;-148.33;100.00;56587.81;5031808;28;20053;-61
2022/04/27 10:51:11;;;;;;;8.70;7.25;;;;;;;-148.33;100.00;56587.81;5039134;28;20025;-61
2022/04/27 10:53:41;;;;;;;7.68;6.97;;;;;;;-148.33;100.00;56587.81;5036933;28;20374;-61
2022/04/27 10:56:26;;;;;;;7.53;6.63;;;;;;;-148.33;100.00;56587.81;5031873;28;20033;-60
2022/04/27 10:58:52;;;;;;;8.23;7.05;;;;;;;-148.33;100.00;56587.81;5034704;28;20013;-61
2022/04/27 11:01:30;;;;;;;7.35;6.50;;;;;;;-148.33;100.00;56587.81;5047368;28;20025;-60
2022/04/27 11:03:59;;;;;;;8.93;7.00;;;;;;;-148.33;100.00;56587.81;5042684;28;20603;-61
2022/04/27 11:06:25;;;;;;;7.90;7.07;;;;;;;-148.33;100.00;56587.81;5045326;28;20049;-61
2022/04/27 11:09:12;;;;;;;7.82;7.03;;;;;;;-148.33;100.00;56587.81;5048410;28;20029;-61
2022/04/27 11:12:04;;;;;;;8.90;8.00;;;;;;;-148.33;100.00;56587.81;5052229;28;20040;-61
2022/04/27 11:14:34;;;;;;;8.35;7.55;;;;;;;-148.33;100.00;56587.81;5049844;28;20071;-61
2022/04/27 11:16:59;;;;;;;7.88;7.07;;;;;;;-148.33;100.00;56587.81;5050456;28;20021;-60
2022/04/27 11:19:39;;;;;;;7.63;6.90;;;;;;;-148.33;100.00;56587.81;5052162;28;20047;-61